Latest Weather Observations for Batchelor

IDD60901

Issued at 7:11 am CST Wednesday 3 June 2020 (issued every 10 minutes, with the page automatically refreshed every 10 minutes)

About weather observations | Map of Darwin area stations | Latest observations for Darwin area | Other Formats
Station Details ID: 014272 Name: BATCHELOR AIRPORT Lat: -13.05 Lon: 131.03 Height: 104.0 m
Data from the previous 72 hours. | See also: Recent months at Batchelor
Date/Time
CST
Temp
°C
App
Temp
°C
Dew
Point
°C
Rel
Hum
%
Delta-T
°C
Wind Press
QNH
hPa
Press
MSL
hPa
Rain since
9am
mm
Dir  Spd
km/h
Gust
km/h
Spd
kts
Gust
kts
03/07:00am 19.2 16.8 8.5 50 5.6 SE 11 15 6 8 1017.9 1017.4 0.0
03/06:30am 19.4 16.6 8.7 50 5.6 SE 13 17 7 9 1017.6 1017.1 0.0
03/06:00am 19.7 17.0 9.0 50 5.6 SE 13 19 7 10 1017.2 1016.7 0.0
03/05:30am 20.2 17.6 9.2 49 5.8 SE 13 19 7 10 1016.8 1016.3 0.0
03/05:00am 20.1 17.9 9.4 50 5.7 SE 11 17 6 9 1016.7 1016.2 0.0
03/04:30am 19.7 18.0 9.9 53 5.3 SE 9 17 5 9 1016.7 1016.2 0.0
03/04:00am 18.8 17.2 10.1 57 4.7 SE 9 13 5 7 1016.7 1016.2 0.0
03/03:30am 17.9 17.3 10.3 61 4.1 ESE 4 4 2 2 1016.7 1016.2 0.0
03/03:00am 18.1 17.5 10.5 61 4.1 ESE 4 9 2 5 1016.6 1016.1 0.0
03/02:30am 17.8 17.3 10.9 64 3.7 ESE 4 6 2 3 1016.7 1016.2 0.0
03/02:00am 17.7 17.6 10.8 64 3.7 ESE 2 4 1 2 1016.9 1016.4 0.0
03/01:30am 18.3 17.7 10.4 60 4.2 SE 4 4 2 2 1017.1 1016.6 0.0
03/01:00am 20.4 19.2 10.2 52 5.5 SE 7 9 4 5 1017.1 1016.6 0.0
03/12:30am 21.0 19.7 11.1 53 5.5 SE 9 9 5 5 1017.2 1016.7 0.0
03/12:00am 21.1 20.2 11.2 53 5.5 ESE 7 9 4 5 1017.2 1016.7 0.0
 
Date/Time
CST
Temp
°C
App
Temp
°C
Dew
Point
°C
Rel
Hum
%
Delta-T
°C
Wind Press
QNH
hPa
Press
MSL
hPa
Rain since
9am
mm
Dir  Spd
km/h
Gust
km/h
Spd
kts
Gust
kts
02/11:30pm 21.6 21.2 13.0 58 4.9 SE 7 11 4 6 1017.3 1016.8 0.0
02/11:00pm 19.7 20.0 13.4 67 3.6 SE 4 6 2 3 1017.4 1016.9 0.0
02/10:30pm 19.6 19.7 14.0 70 3.2 SE 6 6 3 3 1017.3 1016.8 0.0
02/10:00pm 20.7 20.8 13.9 65 3.9 SE 6 6 3 3 1017.0 1016.5 0.0
02/09:30pm 21.2 21.5 13.4 61 4.5 SE 4 6 2 3 1016.7 1016.2 0.0
02/09:00pm 22.7 22.6 13.2 55 5.5 SE 6 7 3 4 1016.5 1016.0 0.0
02/08:30pm 24.8 24.4 12.4 46 7.1 SE 6 6 3 3 1016.0 1015.5 0.0
02/08:00pm 25.3 25.1 12.9 46 7.2 SE 6 6 3 3 1015.4 1014.9 0.0
02/07:30pm 25.3 25.3 12.5 45 7.4 SE 4 7 2 4 1015.0 1014.5 0.0
02/07:00pm 26.6 26.2 12.3 41 8.3 SE 6 7 3 4 1014.7 1014.2 0.0
02/06:30pm 27.6 26.5 10.8 35 9.6 SE 7 9 4 5 1014.2 1013.7 0.0
02/06:00pm 30.1 27.8 10.6 30 11.2 SE 13 22 7 12 1013.6 1013.1 0.0
02/05:30pm 31.1 28.8 10.4 28 11.9 SE 13 24 7 13 1013.2 1012.7 0.0
02/05:00pm 31.9 29.1 10.0 26 12.5 SE 15 24 8 13 1012.6 1012.2 0.0
02/04:30pm 32.4 29.2 9.9 25 12.9 ESE 17 24 9 13 1012.6 1012.2 0.0
02/04:00pm 33.0 30.3 10.4 25 13.1 SE 15 22 8 12 1012.6 1012.2 0.0
02/03:30pm 32.9 29.4 10.3 25 13.1 E 19 35 10 19 1012.6 1012.2 0.0
02/03:00pm 32.9 29.2 10.3 25 13.1 SE 20 28 11 15 1012.8 1012.3 0.0
02/02:30pm 33.0 28.6 10.4 25 13.1 ESE 24 33 13 18 1013.0 1012.5 0.0
02/02:00pm 33.0 29.5 10.9 26 12.9 ESE 20 37 11 20 1013.3 1012.8 0.0
02/01:30pm 32.2 28.2 10.3 26 12.6 E 22 33 12 18 1014.1 1013.6 0.0
02/01:00pm 32.7 28.4 10.7 26 12.8 ESE 24 32 13 17 1014.5 1014.0 0.0
02/12:30pm 32.1 28.0 11.3 28 12.2 ESE 24 32 13 17 1015.0 1014.5 0.0
02/12:00pm 31.8 28.1 12.6 31 11.4 ESE 24 33 13 18 1015.5 1015.0 0.0
02/11:30am 30.3 29.2 17.4 46 8.2 SE 19 28 10 15 1016.0 1015.5 0.0
02/11:00am 29.4 28.4 17.6 49 7.5 ESE 19 30 10 16 1016.6 1016.1 0.0
02/10:30am 28.1 28.1 18.2 55 6.3 ESE 15 22 8 12 1016.9 1016.4 0.0
02/10:00am 27.1 28.6 19.7 64 4.8 ENE 11 17 6 9 1016.9 1016.4 0.0
02/09:30am 26.3 28.2 20.6 71 3.8 E 11 17 6 9 1016.8 1016.3 0.0
02/09:00am 25.4 28.3 21.1 77 2.8 E 7 13 4 7 1016.7 1016.2 0.0
02/08:30am 24.4 28.3 21.9 86 1.7 E 4 7 2 4 1016.4 1015.9 0.0
02/08:00am 21.6 25.8 20.9 96 0.5 CALM 0 0 0 0 1016.2 1015.7 0.0
02/07:30am 19.4 22.6 18.9 97 0.3 CALM 0 0 0 0 1015.8 1015.3 0.0
02/07:00am 18.8 21.7 18.1 96 0.4 CALM 0 0 0 0 1015.4 1014.9 0.0
02/06:30am 19.0 21.9 18.3 96 0.4 CALM 0 0 0 0 1014.9 1014.4 0.0
02/06:00am 19.2 22.2 18.5 96 0.4 CALM 0 0 0 0 1014.9 1014.4 0.0
02/05:30am 19.9 23.0 19.4 97 0.3 SE 2 4 1 2 1014.8 1014.3 0.0
02/05:00am 19.6 22.8 18.9 96 0.4 CALM 0 0 0 0 1014.6 1014.1 0.0
02/04:30am 19.3 22.0 18.6 96 0.4 SE 2 4 1 2 1014.4 1013.9 0.0
02/04:00am 20.6 23.5 19.9 96 0.4 ESE 4 6 2 3 1014.1 1013.6 0.0
02/03:30am 20.1 23.2 19.4 96 0.4 E 2 4 1 2 1014.1 1013.6 0.0
02/03:00am 19.6 22.8 18.9 96 0.4 CALM 0 0 0 0 1014.2 1013.7 0.0
02/02:30am 20.0 23.3 19.2 95 0.5 CALM 0 0 0 0 1014.3 1013.8 0.0
02/02:00am 20.3 23.8 19.5 95 0.5 CALM 0 0 0 0 1014.6 1014.1 0.0
02/01:30am 20.6 24.2 19.8 95 0.5 CALM 0 0 0 0 1014.8 1014.3 0.0
02/01:00am 20.5 24.1 19.7 95 0.5 CALM 0 0 0 0 1014.9 1014.4 0.0
02/12:30am 21.4 25.4 20.6 95 0.5 CALM 0 0 0 0 1014.9 1014.4 0.0
02/12:00am 21.6 25.5 20.4 93 0.8 CALM 0 0 0 0 1015.1 1014.6 0.0
 
Date/Time
CST
Temp
°C
App
Temp
°C
Dew
Point
°C
Rel
Hum
%
Delta-T
°C
Wind Press
QNH
hPa
Press
MSL
hPa
Rain since
9am
mm
Dir  Spd
km/h
Gust
km/h
Spd
kts
Gust
kts
01/11:30pm 22.2 25.5 20.8 92 0.9 W 4 6 2 3 1015.4 1014.9 0.0
01/11:00pm 22.6 26.1 20.3 87 1.5 W 2 4 1 2 1015.4 1014.9 0.0
01/10:30pm 23.6 26.8 21.3 87 1.5 W 6 7 3 4 1015.4 1014.9 0.0
01/10:00pm 23.9 27.7 21.0 84 1.9 WNW 2 6 1 3 1015.5 1015.0 0.0
01/09:30pm 24.7 27.7 21.2 81 2.3 WNW 7 13 4 7 1015.4 1014.9 0.0
01/09:00pm 24.6 27.5 21.1 81 2.3 WNW 7 9 4 5 1015.3 1014.8 0.0
01/08:30pm 25.4 28.3 21.1 77 2.8 NNW 7 13 4 7 1015.0 1014.5 0.0
01/08:00pm 25.9 28.3 20.0 70 3.8 WNW 7 15 4 8 1014.2 1013.7 0.0
01/07:30pm 24.9 26.8 15.8 57 5.5 CALM 0 0 0 0 1013.8 1013.3 0.0
01/07:00pm 26.7 28.5 15.4 50 6.9 CALM 0 0 0 0 1013.4 1012.9 0.0
01/06:30pm 29.3 30.7 14.3 40 9.1 CALM 0 0 0 0 1013.0 1012.5 0.0
01/06:00pm 31.9 32.3 13.6 32 11.1 SE 4 4 2 2 1012.6 1012.2 0.0
01/05:30pm 33.5 32.6 12.5 28 12.6 SE 9 13 5 7 1012.4 1011.9 0.0
01/05:00pm 33.9 32.5 12.3 27 12.9 SSE 11 19 6 10 1012.3 1011.8 0.0
01/04:30pm 34.1 32.2 11.9 26 13.2 ESE 13 19 7 10 1012.1 1011.6 0.0
01/04:00pm 34.3 32.5 12.0 25 13.3 SE 13 24 7 13 1012.1 1011.6 0.0
01/03:30pm 34.2 31.2 12.0 26 13.2 SE 19 24 10 13 1012.3 1011.8 0.0
01/03:00pm 34.5 32.7 13.3 27 12.9 SE 15 22 8 12 1012.6 1012.2 0.0
01/02:30pm 34.2 32.1 13.6 29 12.6 SE 17 28 9 15 1013.1 1012.6 0.0
01/02:00pm 33.4 31.8 12.9 28 12.4 ESE 13 22 7 12 1013.5 1013.0 0.0
01/01:30pm 33.3 32.2 14.4 32 11.6 E 13 24 7 13 1014.0 1013.5 0.0
01/01:00pm 32.7 31.7 15.7 36 10.6 E 15 22 8 12 1014.7 1014.2 0.0
01/12:30pm 31.5 31.9 16.3 40 9.6 ESE 9 17 5 9 1015.1 1014.6 0.0
01/12:00pm 31.2 31.8 16.8 42 9.1 ENE 9 17 5 9 1015.7 1015.2 0.0
01/11:30am 31.1 33.0 18.5 47 8.2 ENE 6 15 3 8 1016.1 1015.6 0.0
01/11:00am 30.1 31.6 18.8 50 7.3 NE 9 15 5 8 1016.4 1015.9 0.0
01/10:30am 28.9 30.8 18.9 54 6.5 NE 7 13 4 7 1016.6 1016.1 0.0
01/10:00am 28.1 30.3 19.3 58 5.7 ENE 6 11 3 6 1016.8 1016.3 0.0
01/09:30am 26.7 29.6 19.8 66 4.5 ESE 4 6 2 3 1016.8 1016.3 0.0
01/09:00am 25.4 28.8 20.9 76 3.0 SSE 4 6 2 3 1016.8 1016.2 0.0
01/08:30am 24.0 28.7 21.9 88 1.4 CALM 0 0 0 0 1016.5 1015.9 0.0
01/08:00am 20.9 24.7 20.2 96 0.5 CALM 0 0 0 0 1016.2 1015.6 0.0
01/07:30am 19.0 21.9 18.3 96 0.4 CALM 0 0 0 0 1015.8 1015.2 0.0
01/07:00am 19.1 22.1 18.4 96 0.4 CALM 0 0 0 0 1015.5 1014.9 0.0
01/06:30am 19.1 22.1 18.4 96 0.4 CALM 0 0 0 0 1015.1 1014.5 0.0
01/06:00am 18.4 21.0 17.6 95 0.5 CALM 0 0 0 0 1014.7 1014.1 0.0
01/05:30am 18.8 21.6 18.0 95 0.5 CALM 0 0 0 0 1014.4 1013.8 0.0
01/05:00am 19.6 22.8 18.8 95 0.5 CALM 0 0 0 0 1014.2 1013.6 0.0
01/04:30am 19.6 22.7 18.6 94 0.6 CALM 0 0 0 0 1014.1 1013.5 0.0
01/04:00am 20.7 24.4 20.0 96 0.4 CALM 0 2 0 1 1014.2 1013.6 0.0
01/03:30am 19.8 23.1 19.0 95 0.5 CALM 0 0 0 0 1014.1 1013.5 0.0
01/03:00am 19.8 23.0 18.8 94 0.6 CALM 0 0 0 0 1014.1 1013.5 0.0
01/02:30am 20.1 22.4 18.6 91 0.9 SW 4 6 2 3 1014.3 1013.7 0.0
01/02:00am 20.8 23.2 18.7 88 1.3 SW 4 6 2 3 1014.4 1013.8 0.0
01/01:30am 21.7 24.6 19.8 89 1.2 SSW 4 6 2 3 1014.7 1014.1 0.0
01/01:00am 21.3 24.3 20.1 93 0.8 WSW 4 7 2 4 1015.0 1014.4 0.0
01/12:30am 20.9 24.5 19.7 93 0.8 CALM 0 0 0 0 1015.1 1014.5 0.0
01/12:00am 21.2 24.1 19.1 88 1.3 W 2 4 1 2 1015.2 1014.6 0.0
 
Date/Time
CST
Temp
°C
App
Temp
°C
Dew
Point
°C
Rel
Hum
%
Delta-T
°C
Wind Press
QNH
hPa
Press
MSL
hPa
Rain since
9am
mm
Dir  Spd
km/h
Gust
km/h
Spd
kts
Gust
kts
31/11:30pm 21.8 24.8 20.1 90 1.1 W 4 6 2 3 1015.4 1014.8 0.0
31/11:00pm 22.5 26.0 20.4 88 1.4 W 2 4 1 2 1015.5 1014.9 0.0
31/10:30pm 23.0 26.2 20.5 86 1.6 W 4 6 2 3 1015.6 1015.0 0.0
31/10:00pm 23.6 26.8 20.5 83 2.0 W 4 7 2 4 1015.6 1015.0 0.0
31/09:30pm 24.3 27.3 20.8 81 2.3 WNW 6 11 3 6 1015.7 1015.1 0.0
31/09:00pm 24.7 26.9 20.4 77 2.8 WNW 9 13 5 7 1015.4 1014.8 0.0
31/08:30pm 25.3 27.7 20.1 73 3.4 WNW 7 11 4 6 1015.2 1014.6 0.0
31/08:00pm 25.9 28.0 20.2 71 3.7 NW 9 13 5 7 1015.1 1014.5 0.0
31/07:30pm 25.0 26.9 16.7 60 5.1 SE 2 15 1 8 1014.6 1014.0 0.0
31/07:00pm 26.7 28.9 16.6 54 6.3 CALM 0 0 0 0 1014.1 1013.5 0.0
31/06:30pm 29.3 31.1 15.4 42 8.6 CALM 0 0 0 0 1013.7 1013.1 0.0
31/06:00pm 31.6 31.9 13.4 33 11.0 ESE 4 6 2 3 1013.3 1012.7 0.0
31/05:30pm 33.2 33.1 12.2 28 12.5 SSE 4 6 2 3 1013.0 1012.4 0.0
31/05:00pm 33.7 33.0 12.1 27 12.9 ESE 7 15 4 8 1012.6 1012.1 0.0
31/04:30pm 33.8 32.9 12.7 27 12.7 ESE 9 15 5 8 1012.5 1012.0 0.0
31/04:00pm 33.8 33.3 12.7 27 12.7 SE 7 15 4 8 1012.4 1011.9 0.0
31/03:30pm 33.9 33.4 12.8 28 12.7 E 7 15 4 8 1012.5 1012.0 0.0
31/03:00pm 33.7 32.6 13.2 29 12.4 ESE 11 20 6 11 1012.9 1012.3 0.0
31/02:30pm 34.0 33.0 13.5 29 12.5 E 11 17 6 9 1013.2 1012.6 0.0
31/02:00pm 32.8 32.2 13.4 30 11.8 ENE 9 15 5 8 1013.7 1013.1 0.0
31/01:30pm 32.2 31.9 14.3 33 11.0 E 9 20 5 11 1014.3 1013.7 0.0
31/01:00pm 33.0 32.5 15.0 33 11.2 E 11 19 6 10 1014.8 1014.2 0.0
31/12:30pm 31.9 31.8 15.0 36 10.4 E 9 17 5 9 1015.3 1014.7 0.0
31/12:00pm 30.8 31.3 15.6 39 9.4 ENE 7 13 4 7 1016.0 1015.4 0.0
31/11:30am 30.7 32.0 17.0 43 8.7 ENE 6 11 3 6 1016.5 1015.9 0.0
31/11:00am 29.7 31.3 17.8 48 7.6 NE 6 9 3 5 1016.9 1016.3 0.0
31/10:30am 29.1 30.3 17.3 49 7.5 NE 7 15 4 8 1017.2 1016.6 0.0
31/10:00am 28.6 30.0 17.8 52 6.9 NNE 7 13 4 7 1017.4 1016.8 0.0
31/09:30am 27.2 30.2 19.3 62 5.1 SW 2 4 1 2 1017.4 1016.8 0.0
31/09:00am 24.7 28.0 20.8 79 2.6 S 4 6 2 3 1017.3 1016.7 0.0
31/08:30am 22.9 27.2 21.2 90 1.1 CALM 0 0 0 0 1017.1 1016.5 0.0
31/08:00am 20.8 24.3 20.3 97 0.3 SSW 2 4 1 2 1017.0 1016.4 0.0
31/07:30am 19.2 22.2 18.5 96 0.4 CALM 0 0 0 0 1016.3 1015.7 0.0

Latest Capital City Observations: Canberra | Sydney | Melbourne | Brisbane | Adelaide | Perth | Hobart | Darwin

Other formats

Comma delimited format used in spreadsheet applications
http://www.bom.gov.au/fwo/IDD60901/IDD60901.94125.axf

JavaScript Object Notation format (JSON) in row-major order
http://www.bom.gov.au/fwo/IDD60901/IDD60901.94125.json

Data quality

Most of these data are generated automatically and are frequently updated. Quality checks on data are not normally performed. It is possible for incorrect values to appear. Refer to information at About Latest Weather Observations and please check the disclaimer before using these data.